Quemado, Texas
Current Conditions -  °F | °C
As of 3:58 PM on Thursday 23 Oct 2014 (Local Time) from KDLF Reporting Station
Scattered Clouds Scattered Clouds  
Wind Chill: 79°   Ceiling: Unl
Heat Index: 81°   Visibility: 10mi
Dew Point: 66°   Wind: 9mph
Humidity: 64%   Direction: 180°S
Pressure: 30.07"   Gusts: NA
Location:  28.95°N, 100.62°W
Report Text: KDLF 232058Z AUTO 18008KT 10SM SCT033 26/19 A3007 RMK AO2 SLP172 T02590187 57024 $
Loading
Personal Weather Stations






























Interactive Weather Map
Tropical Storm Tracking
New forecast layout! Learn more

10-Day Weather Forecast

Advertisements
Track Severe Weather on mobile